createdAt,value
2019-04-21T00:00:44.614Z,53.41
2019-04-21T00:01:45.041Z,53.79
2019-04-21T00:02:42.557Z,53.79
2019-04-21T00:03:45.991Z,53.89
2019-04-21T00:04:49.659Z,54.63
2019-04-21T00:05:57.026Z,54.91
2019-04-21T00:06:55.014Z,55.4
2019-04-21T00:07:50.185Z,55.21
2019-04-21T00:08:48.202Z,54.94
2019-04-21T00:09:52.163Z,55.04
2019-04-21T00:10:47.761Z,54.94
2019-04-21T00:11:46.607Z,54.94
2019-04-21T00:12:40.085Z,55.13
2019-04-21T00:13:37.957Z,54.91
2019-04-21T00:14:33.599Z,54.94
2019-04-21T00:15:29.619Z,55.13
2019-04-21T00:16:32.013Z,55.04
2019-04-21T00:17:23.060Z,54.94
2019-04-21T00:18:19.044Z,55.04
2019-04-21T00:19:21.491Z,55.52
2019-04-21T00:20:23.610Z,55.49
2019-04-21T00:21:23.132Z,55.52
2019-04-21T00:22:22.791Z,55.3
2019-04-21T00:23:27.358Z,55.3
2019-04-21T00:24:24.743Z,55.01
2019-04-21T00:25:23.361Z,55.68
2019-04-21T00:26:27.718Z,55.3
2019-04-21T00:27:24.344Z,55.3
2019-04-21T00:28:30.171Z,55.58
2019-04-21T00:29:30.070Z,55.49
2019-04-21T00:30:21.201Z,55.49
2019-04-21T00:31:19.155Z,55.21
2019-04-21T00:32:13.440Z,55.21
2019-04-21T00:33:06.606Z,55.49
2019-04-21T00:33:58.300Z,55.4
2019-04-21T00:35:02.961Z,55.49
2019-04-21T00:36:00.581Z,55.49
2019-04-21T00:37:02.936Z,55.49
2019-04-21T00:38:11.761Z,55.68
2019-04-21T00:39:20.513Z,55.58
2019-04-21T00:40:09.035Z,55.58
2019-04-21T00:41:05.291Z,55.58
2019-04-21T00:42:05.030Z,54.91
2019-04-21T00:43:03.343Z,55.56
2019-04-21T00:43:56.919Z,55.01
2019-04-21T00:44:57.577Z,55.58
2019-04-21T00:45:51.691Z,55.08
2019-04-21T00:46:51.158Z,55.58
2019-04-21T00:47:57.549Z,55.27
2019-04-21T00:48:56.289Z,55.11
2019-04-21T00:49:56.363Z,55.36
2019-04-21T00:51:09.580Z,55.56
2019-04-21T00:52:01.814Z,54.99
2019-04-21T00:53:04.482Z,55.27
2019-04-21T00:53:57.735Z,54.89
2019-04-21T00:54:56.785Z,54.89
2019-04-21T00:55:48.408Z,54.99
2019-04-21T00:56:48.101Z,55.46
2019-04-21T00:57:51.151Z,55.46
2019-04-21T00:58:45.169Z,55.56
2019-04-21T00:59:44.965Z,55.36
2019-04-21T01:00:38.307Z,55.46
2019-04-21T01:01:37.444Z,54.79
2019-04-21T01:02:44.339Z,55.18
2019-04-21T01:03:37.084Z,55.08
2019-04-21T01:04:36.694Z,55.18
2019-04-21T01:06:35.008Z,55.56
2019-04-21T01:07:31.247Z,55.36
2019-04-21T01:08:30.950Z,54.89
2019-04-21T01:09:23.576Z,54.89
2019-04-21T01:10:20.483Z,55.27
2019-04-21T01:11:23.508Z,54.89
2019-04-21T01:12:25.232Z,55.18
2019-04-21T01:13:26.033Z,55.36
2019-04-21T01:14:29.619Z,55.27
2019-04-21T01:15:24.164Z,55.36
2019-04-21T01:16:20.138Z,54.89
2019-04-21T01:17:17.741Z,54.99
2019-04-21T01:18:16.124Z,54.99
2019-04-21T01:19:10.356Z,55.27
2019-04-21T01:20:06.155Z,54.99
2019-04-21T01:20:51.161Z,55.46
2019-04-21T01:21:49.777Z,55.46
2019-04-21T01:22:48.317Z,54.89
2019-04-21T01:23:48.523Z,55.08
2019-04-21T01:24:48.678Z,54.79
2019-04-21T01:25:55.314Z,55.08
2019-04-21T01:26:54.221Z,54.89
2019-04-21T01:27:58.621Z,55.18
2019-04-21T01:28:59.663Z,55.27
2019-04-21T01:29:59.577Z,54.89
2019-04-21T01:30:56.657Z,55.27
2019-04-21T01:31:53.573Z,54.5
2019-04-21T01:32:52.702Z,54.6
2019-04-21T01:33:56.006Z,55.36
2019-04-21T01:34:50.839Z,55.08
2019-04-21T01:35:47.781Z,54.99
2019-04-21T01:36:44.423Z,54.99
2019-04-21T01:37:49.062Z,55.36
2019-04-21T01:38:47.975Z,55.56
2019-04-21T01:39:46.798Z,54.99
2019-04-21T01:40:44.510Z,55.18
2019-04-21T01:41:44.618Z,54.99
2019-04-21T01:42:37.968Z,55.27
2019-04-21T01:43:39.296Z,54.99
2019-04-21T01:44:41.524Z,55.18
2019-04-21T01:45:36.795Z,55.05
2019-04-21T01:46:33.405Z,55.34
2019-04-21T01:47:30.864Z,54.96
2019-04-21T01:48:30.388Z,55.34
2019-04-21T01:49:22.712Z,55.05
2019-04-21T01:50:28.788Z,55.15
2019-04-21T01:51:21.974Z,55.34
2019-04-21T01:52:38.097Z,55.34
2019-04-21T01:53:30.448Z,55.34
2019-04-21T01:54:28.361Z,55.24
2019-04-21T01:55:24.779Z,55.15
2019-04-21T01:56:23.657Z,55.63
2019-04-21T01:57:17.177Z,55.34
2019-04-21T01:58:14.918Z,55.53
2019-04-21T01:59:06.491Z,55.34
2019-04-21T02:00:06.950Z,55.24
2019-04-21T02:01:08.377Z,55.44
2019-04-21T02:02:16.900Z,55.15
2019-04-21T02:03:20.854Z,55.44
2019-04-21T02:05:58.449Z,55.05
2019-04-21T02:06:57.111Z,55.24
2019-04-21T02:07:48.966Z,55.24
2019-04-21T02:08:47.678Z,55.05
2019-04-21T02:09:49.071Z,54.86
2019-04-21T02:10:54.397Z,54.67
2019-04-21T02:11:50.068Z,54.96
2019-04-21T02:12:44.204Z,55.05
2019-04-21T02:13:52.843Z,55.05
2019-04-21T02:14:50.125Z,55.15
2019-04-21T02:15:41.816Z,55.34
2019-04-21T02:16:40.282Z,54.77
2019-04-21T02:17:33.804Z,55.63
2019-04-21T02:18:33.186Z,55.53
2019-04-21T02:19:31.066Z,55.44
2019-04-21T02:20:25.237Z,55.34
2019-04-21T02:21:27.144Z,54.86
2019-04-21T02:22:34.919Z,54.77
2019-04-21T02:24:34.717Z,54.96
2019-04-21T02:25:31.250Z,55.24
2019-04-21T02:26:26.466Z,55.34
2019-04-21T02:27:23.262Z,55.53
2019-04-21T02:28:27.857Z,55.53
2019-04-21T02:29:26.525Z,55.44
2019-04-21T02:30:35.198Z,55.53
2019-04-21T02:31:35.695Z,55.44
2019-04-21T02:32:24.096Z,55.34
2019-04-21T02:33:35.920Z,55.05
2019-04-21T02:34:31.982Z,55.05
2019-04-21T02:35:29.680Z,55.15
2019-04-21T02:36:28.873Z,55.24
2019-04-21T02:37:36.478Z,55.24
2019-04-21T02:38:29.521Z,55.15
2019-04-21T02:39:17.827Z,54.96
2019-04-21T02:41:12.571Z,55.15
2019-04-21T02:42:07.614Z,55.24
2019-04-21T02:44:26.226Z,55.44
2019-04-21T02:45:07.978Z,56.08
2019-04-21T02:46:12.237Z,56.27
2019-04-21T02:47:03.378Z,55.88
2019-04-21T02:48:08.355Z,56.17
2019-04-21T02:49:03.817Z,56.27
2019-04-21T02:50:57.203Z,56.65
2019-04-21T02:52:00.918Z,56.97
2019-04-21T02:53:00.656Z,56.59
2019-04-21T02:54:53.167Z,55.98
2019-04-21T02:55:50.635Z,56.3
2019-04-21T02:57:08.383Z,56.39
2019-04-21T02:57:57.311Z,56.37
2019-04-21T02:59:04.945Z,56.37
2019-04-21T03:00:06.291Z,56.37
2019-04-21T03:00:42.424Z,56.17
2019-04-21T03:02:03.293Z,56.27
2019-04-21T03:02:46.619Z,56.17
2019-04-21T03:03:41.528Z,56.27
2019-04-21T03:04:41.961Z,56.08
2019-04-21T03:05:44.807Z,56.17
2019-04-21T03:06:39.161Z,56.37
2019-04-21T03:07:29.823Z,56.17
2019-04-21T03:08:42.445Z,56.17
2019-04-21T03:11:23.737Z,56.27
2019-04-21T03:13:46.367Z,55.88
2019-04-21T03:15:28.732Z,56.75
2019-04-21T03:18:12.293Z,57.23
2019-04-21T03:47:06.625Z,57.77
2019-04-21T03:49:10.133Z,57.77
2019-04-21T03:50:54.554Z,58.63
2019-04-21T03:52:02.790Z,57.97
2019-04-21T03:53:53.262Z,57.77
2019-04-21T03:55:11.689Z,57.68
2019-04-21T03:58:04.081Z,57.68
2019-04-21T03:58:57.877Z,58.06
2019-04-21T03:59:54.758Z,58.25
2019-04-21T04:00:59.412Z,57.77
2019-04-21T04:01:46.485Z,58.54
2019-04-21T04:03:51.549Z,59.11
2019-04-21T04:06:42.426Z,59.01
2019-04-21T04:09:51.654Z,59.4
2019-04-21T04:10:31.087Z,59.97
2019-04-21T04:11:37.474Z,59.47
2019-04-21T04:13:36.513Z,59.59
2019-04-21T04:14:30.548Z,60.16
2019-04-21T04:15:38.025Z,59.97
2019-04-21T04:16:24.698Z,59.69
2019-04-21T04:19:05.204Z,60.06
2019-04-21T04:20:11.446Z,59.56
2019-04-21T04:21:12.082Z,60.06
2019-04-21T04:23:07.611Z,60.04
2019-04-21T04:24:03.750Z,60.13
2019-04-21T04:28:07.964Z,60.99
2019-04-21T04:29:03.234Z,61.57
2019-04-21T04:29:58.809Z,61.28
2019-04-21T04:30:51.648Z,61.19
2019-04-21T04:31:47.268Z,61.19
2019-04-21T04:32:46.087Z,61.09
2019-04-21T04:48:10.667Z,61.09
2019-04-21T04:49:23.377Z,61.02
2019-04-21T04:50:09.674Z,61.19
2019-04-21T04:52:26.994Z,61.31
2019-04-21T04:53:11.309Z,61.31
2019-04-21T04:54:01.493Z,61.85
2019-04-21T04:56:10.288Z,61.85
2019-04-21T04:57:13.665Z,61.6
2019-04-21T04:58:06.579Z,61.6
2019-04-21T05:01:04.570Z,61.31
2019-04-21T05:02:10.807Z,61.41
2019-04-21T05:02:55.767Z,60.9
2019-04-21T05:03:56.412Z,61.31
2019-04-21T05:05:55.316Z,61.47
2019-04-21T05:07:57.054Z,62.24
2019-04-21T05:09:46.330Z,62.24
2019-04-21T05:12:35.524Z,62.43
2019-04-21T05:13:43.175Z,62.71
2019-04-21T05:14:38.217Z,62.62
2019-04-21T05:15:31.600Z,62.62
2019-04-21T05:18:34.320Z,62.84
2019-04-21T05:20:22.644Z,61.88
2019-04-21T05:22:27.633Z,62.17
2019-04-21T05:23:17.527Z,62.37
2019-04-21T05:24:16.072Z,62.37
2019-04-21T05:25:13.039Z,62.27
2019-04-21T05:26:06.266Z,62.37
2019-04-21T05:27:05.959Z,62.17
2019-04-21T05:28:03.224Z,62.52
2019-04-21T05:29:01.437Z,62.71
2019-04-21T05:30:06.937Z,62.74
2019-04-21T05:31:12.396Z,62.65
2019-04-21T05:32:07.446Z,62.33
2019-04-21T05:33:08.965Z,62.71
2019-04-21T05:34:02.870Z,62.52
2019-04-21T05:35:01.364Z,62.9
2019-04-21T05:35:55.033Z,62.65
2019-04-21T05:37:00.760Z,62.55
2019-04-21T05:37:59.732Z,62.46
2019-04-21T05:38:52.883Z,62.74
2019-04-21T05:39:52.131Z,62.94
2019-04-21T05:40:48.119Z,62.27
2019-04-21T05:41:42.753Z,62.27
2019-04-21T05:42:49.421Z,62.3
2019-04-21T05:43:51.232Z,61.34
2019-04-21T05:44:57.961Z,61.54
2019-04-21T05:45:51.447Z,62.01
2019-04-21T05:46:56.273Z,61.54
2019-04-21T05:47:46.020Z,61.63
2019-04-21T05:48:45.343Z,61.54
2019-04-21T05:49:38.096Z,61.63
2019-04-21T05:50:37.546Z,62.01
2019-04-21T05:51:34.977Z,61.25
2019-04-21T05:52:32.763Z,61.25
2019-04-21T05:53:55.447Z,61.66
2019-04-21T05:54:43.878Z,61.28
2019-04-21T05:56:34.977Z,61.34
2019-04-21T05:57:33.083Z,61.54
2019-04-21T05:58:31.402Z,61.44
2019-04-21T05:59:25.873Z,61.94
2019-04-21T06:00:38.865Z,61.37
2019-04-21T06:01:32.698Z,61.08
2019-04-21T06:03:22.932Z,60.7
2019-04-21T06:04:38.135Z,60.8
2019-04-21T06:05:28.021Z,60.89
2019-04-21T06:06:25.979Z,61.57
2019-04-21T06:07:22.727Z,61.66
2019-04-21T06:08:17.506Z,60.8
2019-04-21T06:09:18.842Z,61.18
2019-04-21T06:10:12.121Z,61.18
2019-04-21T06:11:17.745Z,61.28
2019-04-21T06:12:12.776Z,61.28
2019-04-21T06:14:29.170Z,60.7
2019-04-21T06:15:06.844Z,60.61
2019-04-21T06:16:06.954Z,60.83
2019-04-21T06:17:07.839Z,59.94
2019-04-21T06:18:04.242Z,60.89
2019-04-21T06:19:20.566Z,60.8
2019-04-21T06:19:59.803Z,61.02
2019-04-21T06:20:59.241Z,60.83
2019-04-21T06:21:56.760Z,60.16
2019-04-21T06:22:56.205Z,60.16
2019-04-21T06:23:56.801Z,60.06
2019-04-21T06:25:20.575Z,60.25
2019-04-21T06:27:06.717Z,59.97
2019-04-21T06:27:50.601Z,60.35
2019-04-21T06:28:49.962Z,60.25
2019-04-21T06:29:48.956Z,60.06
2019-04-21T06:30:59.059Z,60.25
2019-04-21T06:33:44.265Z,60.16
2019-04-21T06:34:56.363Z,59.58
2019-04-21T06:35:58.589Z,59.97
2019-04-21T06:36:42.118Z,60.16
2019-04-21T06:37:42.984Z,59.77
2019-04-21T06:38:42.968Z,59.87
2019-04-21T06:39:37.028Z,59.77
2019-04-21T06:40:35.451Z,59.33
2019-04-21T06:42:32.362Z,58.84
2019-04-21T06:43:32.846Z,58.84
2019-04-21T06:44:38.615Z,59.23
2019-04-21T06:46:30.041Z,57.43
2019-04-21T06:47:29.827Z,57.53
2019-04-21T06:48:24.366Z,57.06
2019-04-21T06:49:12.979Z,56.41
2019-04-21T06:50:22.189Z,56.31
2019-04-21T06:51:22.140Z,56.02
2019-04-21T06:52:23.315Z,55.57
2019-04-21T06:53:20.312Z,55.83
2019-04-21T06:54:14.116Z,55.1
2019-04-21T06:56:51.111Z,54.45
2019-04-21T06:57:51.326Z,54.35
2019-04-21T06:58:50.093Z,54.64
2019-04-21T06:59:49.490Z,55.02
2019-04-21T07:00:46.761Z,54.45
2019-04-21T07:01:48.628Z,53.9
2019-04-21T07:02:51.733Z,54.09
2019-04-21T07:03:47.234Z,54
2019-04-21T07:04:42.380Z,53.52
2019-04-21T07:05:47.201Z,53.32
2019-04-21T07:07:43.034Z,52.94
2019-04-21T07:08:44.162Z,54.09
2019-04-21T07:09:35.541Z,53.03
2019-04-21T07:10:36.670Z,53.13
2019-04-21T07:11:30.098Z,52.46
2019-04-21T07:12:27.369Z,53.13
2019-04-21T07:13:30.693Z,52.58
2019-04-21T07:15:30.215Z,52.2
2019-04-21T07:16:31.430Z,51.81
2019-04-21T07:17:27.776Z,52.48
2019-04-21T07:25:27.655Z,51.26
2019-04-21T07:26:19.079Z,50.95
2019-04-21T07:27:14.956Z,51.35
2019-04-21T07:28:09.756Z,51.81
2019-04-21T07:29:13.962Z,51.81
2019-04-21T07:30:12.675Z,51.04
2019-04-21T07:31:09.685Z,50.66
2019-04-21T07:32:09.169Z,51.14
2019-04-21T07:33:12.579Z,51.43
2019-04-21T07:35:42.972Z,50.85
2019-04-21T07:36:50.737Z,51.33
2019-04-21T07:37:40.399Z,51.23
2019-04-21T07:38:39.088Z,51.04
2019-04-21T07:39:38.631Z,50.85
2019-04-21T07:40:33.089Z,51.04
2019-04-21T07:41:32.820Z,50.56
2019-04-21T07:42:32.347Z,50.46
2019-04-21T07:43:29.640Z,50.27
2019-04-21T07:44:28.399Z,50.27
2019-04-21T07:45:26.050Z,50.27
2019-04-21T07:46:22.252Z,50.37
2019-04-21T07:47:26.247Z,50.37
2019-04-21T07:48:24.407Z,51.14
2019-04-21T07:49:24.979Z,50.56
2019-04-21T07:50:26.171Z,51.04
2019-04-21T07:51:24.678Z,50.56
2019-04-21T07:54:16.815Z,50.56
2019-04-21T07:55:18.322Z,50.66
2019-04-21T07:55:50.391Z,50.37
2019-04-21T07:56:58.878Z,50.37
2019-04-21T07:57:59.510Z,50.37
2019-04-21T07:59:01.482Z,50.37
2019-04-21T08:00:14.815Z,50.37
2019-04-21T08:01:03.707Z,50.76
2019-04-21T08:02:00.642Z,50.82
2019-04-21T08:03:00.017Z,51.02
2019-04-21T08:03:59.079Z,51.21
2019-04-21T08:04:59.265Z,51.21
2019-04-21T08:05:57.159Z,51.31
2019-04-21T08:06:50.609Z,51.02
2019-04-21T08:07:57.673Z,51.11
2019-04-21T08:08:46.471Z,51.02
2019-04-21T08:09:46.041Z,51.02
2019-04-21T08:10:43.449Z,51.31
2019-04-21T08:11:41.488Z,51.47
2019-04-21T08:12:41.788Z,51.5
2019-04-21T08:13:56.019Z,51.5
2019-04-21T08:14:42.690Z,51.57
2019-04-21T08:15:39.398Z,51.86
2019-04-21T08:16:36.572Z,51.76
2019-04-21T08:18:38.948Z,51.88
2019-04-21T08:19:35.034Z,51.5
2019-04-21T08:20:28.278Z,51.4
2019-04-21T08:21:33.717Z,51.59
2019-04-21T08:22:31.884Z,51.21
2019-04-21T08:23:31.279Z,51.21
2019-04-21T08:24:26.896Z,51.11
2019-04-21T08:25:24.704Z,51.69
2019-04-21T08:26:30.680Z,51.88
2019-04-21T08:27:25.164Z,51.59
2019-04-21T08:28:25.767Z,51.88
2019-04-21T08:30:25.515Z,51.21
2019-04-21T08:31:20.274Z,50.82
2019-04-21T08:32:25.963Z,51.4
2019-04-21T08:33:24.511Z,51.23
2019-04-21T08:34:21.334Z,51.69
2019-04-21T08:35:27.126Z,51.72
2019-04-21T08:37:11.542Z,51.62
2019-04-21T08:38:13.167Z,51.23
2019-04-21T08:39:06.337Z,51.23
2019-04-21T08:40:08.691Z,51.53
2019-04-21T08:41:07.887Z,51.23
2019-04-21T08:42:03.127Z,51.91
2019-04-21T08:42:59.466Z,52.08
2019-04-21T08:43:55.826Z,51.69
2019-04-21T08:44:59.926Z,51.81
2019-04-21T08:45:58.584Z,51.72
2019-04-21T08:46:58.603Z,51.11
2019-04-21T08:47:58.037Z,50.95
2019-04-21T08:48:55.171Z,50.85
2019-04-21T08:49:53.443Z,51.04
2019-04-21T08:51:03.696Z,51.33
2019-04-21T08:51:53.473Z,51.14
2019-04-21T08:53:53.084Z,50.95
2019-04-21T08:54:46.663Z,50.76
2019-04-21T08:55:48.716Z,50.85
2019-04-21T08:56:46.475Z,51.07
2019-04-21T08:57:50.291Z,50.68
2019-04-21T08:58:41.167Z,50.3
2019-04-21T08:59:43.339Z,50.3
2019-04-21T09:00:38.267Z,50.2
2019-04-21T09:02:40.129Z,50.49
2019-04-21T09:03:35.300Z,50.59
2019-04-21T09:04:39.052Z,50.3
2019-04-21T09:05:29.174Z,50.3
2019-04-21T09:06:41.561Z,50.01
2019-04-21T09:07:31.889Z,49.72
2019-04-21T09:08:31.147Z,49.82
2019-04-21T09:09:28.637Z,50.2
2019-04-21T09:10:21.754Z,49.91
2019-04-21T09:11:21.930Z,49.82
2019-04-21T09:12:21.001Z,49.72
2019-04-21T09:13:16.845Z,49.82
2019-04-21T09:14:17.653Z,50.01
2019-04-21T09:15:18.765Z,49.82
2019-04-21T09:16:13.577Z,49.72
2019-04-21T09:17:10.386Z,49.33
2019-04-21T09:18:08.303Z,49.91
2019-04-21T09:19:07.574Z,49.53
2019-04-21T09:20:16.694Z,49.15
2019-04-21T09:21:13.143Z,48.95
2019-04-21T09:22:05.481Z,48.97
2019-04-21T09:23:06.223Z,48.88
2019-04-21T09:24:11.262Z,49.17
2019-04-21T09:26:51.204Z,49.36
2019-04-21T09:27:46.566Z,49.74
2019-04-21T09:28:39.283Z,50.04
2019-04-21T09:29:36.503Z,49.46
2019-04-21T09:30:30.634Z,48.88
2019-04-21T09:31:30.833Z,48.69
2019-04-21T09:32:27.511Z,48.21
2019-04-21T09:37:18.822Z,49.07
2019-04-21T09:38:15.866Z,49.17
2019-04-21T09:39:11.127Z,48.9
2019-04-21T09:40:04.821Z,48.49
2019-04-21T09:41:02.708Z,48.49
2019-04-21T09:42:02.472Z,48.4
2019-04-21T09:43:04.569Z,47.82
2019-04-21T09:43:59.264Z,48.13
2019-04-21T09:45:00.562Z,48.59
2019-04-21T09:45:56.662Z,47.53
2019-04-21T09:46:57.922Z,47.05
2019-04-21T09:48:00.729Z,47.44
2019-04-21T09:48:57.092Z,47.46
2019-04-21T09:49:49.972Z,48.3
2019-04-21T09:50:48.818Z,48.03
2019-04-21T09:51:48.277Z,47.46
2019-04-21T09:52:52.758Z,47.94
2019-04-21T09:53:53.305Z,48.52
2019-04-21T09:54:51.935Z,48.13
2019-04-21T09:55:50.123Z,47.08
2019-04-21T09:56:49.688Z,46.98
2019-04-21T09:57:46.430Z,47.56
2019-04-21T09:58:42.312Z,47.65
2019-04-21T09:59:40.032Z,48.23
2019-04-21T10:00:45.495Z,48.23
2019-04-21T10:01:48.913Z,47.56
2019-04-21T10:02:37.253Z,47.39
2019-04-21T10:03:35.862Z,46.62
2019-04-21T10:04:29.635Z,46.62
2019-04-21T10:05:29.584Z,47.49
2019-04-21T10:06:28.217Z,47.39
2019-04-21T10:07:31.474Z,47.19
2019-04-21T10:08:24.981Z,47.1
2019-04-21T10:09:24.171Z,47.49
2019-04-21T10:10:21.383Z,46.91
2019-04-21T10:11:20.990Z,45.84
2019-04-21T10:12:18.456Z,45.17
2019-04-21T10:13:17.387Z,44.89
2019-04-21T10:14:15.985Z,44.79
2019-04-21T10:15:14.759Z,44.89
2019-04-21T10:16:13.477Z,45.07
2019-04-21T10:17:13.038Z,44.79
2019-04-21T10:18:10.932Z,44.49
2019-04-21T10:19:10.998Z,44.31
2019-04-21T10:21:50.126Z,43.44
2019-04-21T10:22:48.974Z,42.96
2019-04-21T10:23:47.947Z,42.76
2019-04-21T10:24:46.704Z,42.96
2019-04-21T10:25:44.773Z,42.96
2019-04-21T10:28:07.695Z,43.24
2019-04-21T10:29:13.037Z,42.97
2019-04-21T10:30:05.692Z,42.88
2019-04-21T10:31:04.813Z,43.17
2019-04-21T10:32:03.502Z,43.46
2019-04-21T10:33:00.937Z,43.94
2019-04-21T10:34:00.987Z,43.75
2019-04-21T10:34:59.150Z,43.37
2019-04-21T10:35:57.128Z,42.88
2019-04-21T10:36:55.585Z,42.88
2019-04-21T10:38:06.535Z,41.82
2019-04-21T10:38:53.928Z,41.14
2019-04-21T10:39:51.615Z,41.34
2019-04-21T10:50:41.142Z,40.3
2019-04-21T10:51:39.419Z,40.78
2019-04-21T10:52:38.034Z,40.78
2019-04-21T10:53:36.833Z,40.78
2019-04-21T10:54:48.926Z,41.46
2019-04-21T10:55:48.370Z,41.55
2019-04-21T10:56:36.907Z,40.39
2019-04-21T10:57:32.553Z,40.01
2019-04-21T10:58:29.953Z,40.2
2019-04-21T10:59:29.047Z,38.95
2019-04-21T11:00:28.111Z,38.66
2019-04-21T11:01:27.168Z,39.34
2019-04-21T11:02:25.043Z,39.82
2019-04-21T11:03:24.739Z,39.82
2019-04-21T11:04:27.170Z,39.74
2019-04-21T11:05:20.790Z,38.29
2019-04-21T11:06:19.098Z,37.13
2019-04-21T11:07:19.936Z,36.65
2019-04-21T11:08:23.472Z,35.98
2019-04-21T11:09:15.822Z,35.02
2019-04-21T11:10:14.028Z,34.24
2019-04-21T11:11:12.128Z,32.79
2019-04-21T11:12:10.534Z,31.25
2019-04-21T11:13:10.338Z,30.87
2019-04-21T11:14:08.543Z,29.52
2019-04-21T11:15:07.266Z,29.8
2019-04-21T11:16:05.588Z,29.71
2019-04-21T11:17:04.113Z,29.61
2019-04-21T11:18:03.938Z,30
2019-04-21T11:19:02.001Z,29.8
2019-04-21T11:20:01.084Z,29.32
2019-04-21T11:20:58.978Z,28.55
2019-04-21T11:21:58.668Z,28.18
2019-04-21T11:22:56.079Z,28.45
2019-04-21T11:23:54.622Z,28.45
2019-04-21T11:24:53.473Z,28.47
2019-04-21T11:25:52.009Z,28.28
2019-04-21T11:26:51.798Z,28.08
2019-04-21T11:27:49.412Z,28.18
2019-04-21T11:28:48.942Z,27.31
2019-04-21T11:29:47.436Z,26.72
2019-04-21T11:30:46.598Z,26.15
2019-04-21T11:31:45.127Z,26.72
2019-04-21T11:32:44.904Z,26.73
2019-04-21T11:33:41.198Z,27.02
2019-04-21T11:34:40.728Z,27.7
2019-04-21T11:35:39.328Z,28.47
2019-04-21T11:36:37.473Z,28.28
2019-04-21T11:37:35.800Z,28.18
2019-04-21T11:38:45.826Z,28.47
2019-04-21T11:39:41.814Z,28.47
2019-04-21T11:40:31.961Z,28.85
2019-04-21T11:41:31.746Z,28.66
2019-04-21T11:42:30.033Z,28.76
2019-04-21T11:43:28.562Z,28.47
2019-04-21T11:44:28.903Z,28.76
2019-04-21T11:45:26.343Z,28.08
2019-04-21T11:46:24.774Z,28.08
2019-04-21T11:47:24.524Z,27.02
2019-04-21T11:48:22.044Z,26.54
2019-04-21T11:49:22.175Z,26.92
2019-04-21T11:50:19.555Z,27.22
2019-04-21T11:51:19.197Z,27.8
2019-04-21T11:52:16.674Z,28.76
2019-04-21T11:53:16.724Z,28.56
2019-04-21T11:54:15.048Z,28.76
2019-04-21T11:55:12.862Z,28.67
2019-04-21T11:56:12.556Z,27.03
2019-04-21T11:57:14.903Z,26.54
2019-04-21T11:58:09.800Z,27.22
2019-04-21T11:59:07.960Z,27.6
2019-04-21T12:00:06.186Z,27.89
2019-04-21T12:01:05.577Z,27.51
2019-04-21T12:02:03.578Z,27.42
2019-04-21T12:03:02.054Z,27.33
2019-04-21T12:04:00.630Z,27.23
2019-04-21T12:04:59.292Z,27.71
2019-04-21T12:05:57.753Z,27.91
2019-04-21T12:06:57.718Z,28.19
2019-04-21T12:07:58.263Z,26.75
2019-04-21T12:08:56.444Z,26.65
2019-04-21T12:09:53.350Z,26.65
2019-04-21T12:10:51.498Z,26.26
2019-04-21T12:11:49.726Z,25.49
2019-04-21T12:12:48.397Z,25.59
2019-04-21T12:13:48.107Z,26.17
2019-04-21T12:14:47.908Z,26.93
2019-04-21T12:15:45.560Z,26.84
2019-04-21T12:16:44.100Z,26.75
2019-04-21T12:17:43.947Z,25.97
2019-04-21T12:18:41.291Z,25.01
2019-04-21T12:19:40.874Z,25.68
2019-04-21T12:20:39.608Z,26.55
2019-04-21T12:21:48.918Z,26.75
2019-04-21T12:22:37.254Z,28
2019-04-21T12:23:34.692Z,28.48
2019-04-21T12:24:34.878Z,28.77
2019-04-21T12:25:33.328Z,28.87
2019-04-21T12:26:31.789Z,29.35
2019-04-21T12:27:29.916Z,29.74
2019-04-21T12:28:28.269Z,29.83
2019-04-21T12:29:26.961Z,29.74
2019-04-21T12:30:25.398Z,29.55
2019-04-21T12:31:23.963Z,30.32
2019-04-21T12:32:22.543Z,30.32
2019-04-21T12:33:22.300Z,29.83
2019-04-21T12:34:19.766Z,29.64
2019-04-21T12:35:19.588Z,29.55
2019-04-21T12:36:17.838Z,29.64
2019-04-21T12:37:17.050Z,30.12
2019-04-21T12:38:14.362Z,30.24
2019-04-21T12:39:14.763Z,30.24
2019-04-21T12:40:12.683Z,30.24
2019-04-21T12:41:10.687Z,30.14
2019-04-21T12:42:09.239Z,29.85
2019-04-21T12:43:08.435Z,29.94
2019-04-21T12:44:06.672Z,29.66
2019-04-21T12:45:05.592Z,29.36
2019-04-21T12:46:04.180Z,29.85
2019-04-21T12:47:03.599Z,30.04
2019-04-21T12:48:02.123Z,30.24
2019-04-21T12:49:00.012Z,30.04
2019-04-21T12:49:59.070Z,30.52
2019-04-21T12:50:57.524Z,31.01
2019-04-21T12:51:55.818Z,31.1
2019-04-21T12:52:55.716Z,31.1
2019-04-21T12:53:53.994Z,31.1
2019-04-21T12:54:51.557Z,31.2
2019-04-21T12:55:51.645Z,31.3
2019-04-21T12:56:49.547Z,31.68
2019-04-21T12:57:47.807Z,31.01
2019-04-21T12:58:47.089Z,31.3
2019-04-21T12:59:44.816Z,31.2
2019-04-21T13:00:43.452Z,30.72
2019-04-21T13:01:43.087Z,30.04
2019-04-21T13:02:40.942Z,30.04
2019-04-21T13:03:39.808Z,30.14
2019-04-21T13:04:38.213Z,29.56
2019-04-21T13:05:37.866Z,29.46
2019-04-21T13:06:35.656Z,29.85
2019-04-21T13:07:35.412Z,29.75
2019-04-21T13:08:45.396Z,29.85
2019-04-21T13:09:32.504Z,29.85
2019-04-21T13:10:30.558Z,30.33
2019-04-21T13:11:29.120Z,30.33
2019-04-21T13:12:28.878Z,30.24
2019-04-21T13:13:28.034Z,30.24
2019-04-21T13:14:26.116Z,31.02
2019-04-21T13:15:25.253Z,31.31
2019-04-21T13:16:23.339Z,31.2
2019-04-21T13:17:21.479Z,30.83
2019-04-21T13:18:20.550Z,30.73
2019-04-21T13:19:18.327Z,30.83
2019-04-21T13:20:17.107Z,30.83
2019-04-21T13:21:16.086Z,30.54
2019-04-21T13:22:14.174Z,30.33
2019-04-21T13:23:13.812Z,30.35
2019-04-21T13:24:11.607Z,30.93
2019-04-21T13:25:09.880Z,30.63
2019-04-21T13:26:09.670Z,30.73
2019-04-21T13:27:08.931Z,31.02
2019-04-21T13:28:06.957Z,30.93
2019-04-21T13:29:04.443Z,31.12
2019-04-21T13:30:04.212Z,31.51
2019-04-21T13:31:02.281Z,31.02
2019-04-21T13:32:00.683Z,31.02
2019-04-21T13:32:59.013Z,31.12
2019-04-21T13:33:57.949Z,30.73
2019-04-21T13:34:57.008Z,30.93
2019-04-21T13:35:55.204Z,30.83
2019-04-21T13:36:53.900Z,31.41
2019-04-21T13:37:52.369Z,31.99
2019-04-21T13:39:14.507Z,31.8
2019-04-21T13:40:12.945Z,32.09
2019-04-21T13:41:00.755Z,31.8
2019-04-21T13:41:56.589Z,31.31
2019-04-21T13:42:49.966Z,31.6
2019-04-21T13:43:45.402Z,31.7
2019-04-21T13:44:42.699Z,30.94
2019-04-21T13:45:41.718Z,30.15
2019-04-21T13:46:40.649Z,29.97
2019-04-21T13:47:38.856Z,29.96
2019-04-21T13:48:37.559Z,30.17
2019-04-21T13:51:01.504Z,30.94
2019-04-21T13:52:00.547Z,31.52
2019-04-21T13:52:58.651Z,30.85
2019-04-21T13:53:57.689Z,30.46
2019-04-21T13:54:55.885Z,30.36
2019-04-21T13:55:53.793Z,30.85
2019-04-21T13:56:52.488Z,30.54
2019-04-21T13:57:52.478Z,31.02
2019-04-21T13:58:50.480Z,31.33
2019-04-21T13:59:49.544Z,30.83
2019-04-21T14:03:12.599Z,31.41
2019-04-21T14:05:54.115Z,30.94
2019-04-21T14:06:52.184Z,30.27
2019-04-21T14:07:50.314Z,30.07
2019-04-21T14:08:50.582Z,29.88
2019-04-21T14:09:55.937Z,29.88
2019-04-21T14:10:47.286Z,29.1
2019-04-21T14:11:45.231Z,29.39
2019-04-21T14:12:44.464Z,29.69
2019-04-21T14:13:42.544Z,29.49
2019-04-21T14:14:42.009Z,29.2
2019-04-21T14:15:39.934Z,28.81
2019-04-21T14:16:38.650Z,28.72
2019-04-21T14:17:37.460Z,29.2
2019-04-21T14:18:36.553Z,28.91
2019-04-21T14:19:35.115Z,29.01
2019-04-21T14:20:35.224Z,29.2
2019-04-21T14:21:33.752Z,29.3
2019-04-21T14:22:31.774Z,28.52
2019-04-21T14:23:35.923Z,29.01
2019-04-21T14:24:28.791Z,28.81
2019-04-21T14:25:27.940Z,28.62
2019-04-21T14:26:26.805Z,28.72
2019-04-21T14:27:24.510Z,28.52
2019-04-21T14:28:24.055Z,28.72
2019-04-21T14:29:21.963Z,29.01
2019-04-21T14:30:22.382Z,28.91
2019-04-21T14:31:20.107Z,28.81
2019-04-21T14:32:18.411Z,28.72
2019-04-21T14:33:18.262Z,28.52
2019-04-21T14:34:16.300Z,28.81
2019-04-21T14:35:14.757Z,28.91
2019-04-21T14:36:14.730Z,28.91
2019-04-21T14:37:12.999Z,28.81
2019-04-21T14:38:10.870Z,28.43
2019-04-21T14:39:10.509Z,28.33
2019-04-21T14:40:12.492Z,28.44
2019-04-21T14:41:06.568Z,28.14
2019-04-21T14:42:06.423Z,27.94
2019-04-21T14:43:03.912Z,27.75
2019-04-21T14:44:02.858Z,27.75
2019-04-21T14:45:01.048Z,27.75
2019-04-21T14:46:00.807Z,28.43
2019-04-21T14:46:58.286Z,27.66
2019-04-21T14:47:57.098Z,27.46
2019-04-21T14:48:57.087Z,27.36
2019-04-21T14:49:55.219Z,26.78
2019-04-21T14:50:54.535Z,26.4
2019-04-21T14:51:52.753Z,26.3
2019-04-21T14:52:50.641Z,26.5
2019-04-21T14:53:49.843Z,26.78